Time;durP1;ratioP1;P1;durP2;ratioP2;P2;SDS_P1;SDS_P2;PMS_P1;PMS_P2;Temp;Humidity;BMP_temperature;BMP_pressure;BME280_temperature;BME280_humidity;BME280_pressure;Samples;Min_cycle;Max_cycle;Signal;HPM_P1;HPM_P2
2022/11/03 00:00:30;;;;;;;9.80;2.70;;;7.30;99.90;;;;;;4326917;28;10020704;-78
2022/11/03 00:02:56;;;;;;;6.93;3.40;;;7.20;99.90;;;;;;5018756;28;20250;-78
2022/11/03 00:08:06;;;;;;;7.72;2.75;;;7.10;99.90;;;;;;5015396;28;20044;-78
2022/11/03 00:10:31;;;;;;;6.05;2.70;;;7.10;99.90;;;;;;5015547;28;20021;-78
2022/11/03 00:12:57;;;;;;;6.97;2.90;;;7.00;99.90;;;;;;5017863;28;21587;-78
2022/11/03 00:15:23;;;;;;;6.43;2.60;;;7.00;99.90;;;;;;5019224;28;20124;-78
2022/11/03 00:17:48;;;;;;;7.07;2.50;;;6.90;99.90;;;;;;5022376;28;20088;-78
2022/11/03 00:20:14;;;;;;;5.15;2.30;;;6.90;99.90;;;;;;5018576;28;20021;-78
2022/11/03 00:22:40;;;;;;;6.95;2.70;;;6.90;99.90;;;;;;5015339;28;20036;-78
2022/11/03 00:25:07;;;;;;;5.32;2.63;;;6.90;99.90;;;;;;5016623;28;20030;-79
2022/11/03 00:27:33;;;;;;;9.40;2.92;;;6.90;99.90;;;;;;5036373;28;20079;-79
2022/11/03 00:29:59;;;;;;;6.22;2.67;;;6.90;99.90;;;;;;5023623;28;20049;-79
2022/11/03 00:32:24;;;;;;;8.38;2.78;;;6.80;99.90;;;;;;5021352;28;20030;-79
2022/11/03 00:34:50;;;;;;;6.07;2.90;;;6.90;99.90;;;;;;5019445;28;20018;-79
2022/11/03 00:37:15;;;;;;;9.10;3.03;;;6.90;99.90;;;;;;5026426;28;20083;-79
2022/11/03 00:39:41;;;;;;;8.85;2.97;;;7.00;99.90;;;;;;5030140;28;20150;-78
2022/11/03 00:42:07;;;;;;;9.30;3.13;;;7.00;99.90;;;;;;5025135;28;20032;-78
2022/11/03 00:44:32;;;;;;;7.35;2.90;;;7.00;99.90;;;;;;5015027;28;20688;-78
2022/11/03 00:46:58;;;;;;;10.43;3.38;;;7.10;99.90;;;;;;5016145;28;20052;-78
2022/11/03 00:49:23;;;;;;;10.85;3.50;;;7.00;99.90;;;;;;5014069;28;20100;-78
2022/11/03 00:51:49;;;;;;;6.53;3.05;;;7.10;99.90;;;;;;5007216;28;20041;-78
2022/11/03 00:54:15;;;;;;;8.77;3.50;;;7.10;99.90;;;;;;5008551;28;20037;-78
2022/11/03 00:56:43;;;;;;;11.07;3.22;;;7.20;99.90;;;;;;5011109;28;20462;-79
2022/11/03 00:59:09;;;;;;;11.18;3.33;;;7.20;99.90;;;;;;5007694;28;20033;-78
2022/11/03 01:01:36;;;;;;;9.63;3.00;;;7.20;99.90;;;;;;5008393;28;20068;-79
2022/11/03 01:06:48;;;;;;;9.27;2.78;;;7.10;99.90;;;;;;5012991;28;20086;-79
2022/11/03 01:09:24;;;;;;;7.50;2.60;;;7.10;99.90;;;;;;5014031;28;20466;-78
2022/11/03 01:12:11;;;;;;;6.50;2.83;;;7.10;99.90;;;;;;5011790;28;20219;-78
2022/11/03 01:14:49;;;;;;;4.20;1.90;;;7.20;99.90;;;;;;5014334;28;20477;-78
2022/11/03 01:17:19;;;;;;;11.75;2.40;;;7.10;99.90;;;;;;5010478;28;20021;-79
2022/11/03 01:19:46;;;;;;;7.18;2.42;;;7.10;99.90;;;;;;5019548;28;20104;-78
2022/11/03 01:22:13;;;;;;;7.55;2.20;;;7.10;99.90;;;;;;5013601;28;20040;-79
2022/11/03 01:24:40;;;;;;;7.35;2.35;;;7.10;99.90;;;;;;5016440;28;20060;-78
2022/11/03 01:27:06;;;;;;;5.20;2.65;;;7.20;99.90;;;;;;5014842;28;20117;-79
2022/11/03 01:29:32;;;;;;;7.25;2.42;;;7.20;99.90;;;;;;5010222;28;20056;-78
2022/11/03 01:31:58;;;;;;;9.07;2.20;;;7.20;99.90;;;;;;5004513;28;20612;-79
2022/11/03 01:34:23;;;;;;;6.63;2.38;;;7.30;99.90;;;;;;5008492;28;20028;-79
2022/11/03 01:36:49;;;;;;;6.15;2.17;;;7.30;99.90;;;;;;5010019;28;20042;-79
2022/11/03 01:39:17;;;;;;;7.68;2.17;;;7.30;99.90;;;;;;5017140;28;20676;-78
2022/11/03 01:41:45;;;;;;;7.90;2.30;;;7.30;99.90;;;;;;5014288;28;20482;-78
2022/11/03 01:44:10;;;;;;;7.47;1.80;;;7.40;99.90;;;;;;5015378;28;20034;-78
2022/11/03 01:46:45;;;;;;;6.50;1.95;;;7.40;99.90;;;;;;5030761;28;20710;-78
2022/11/03 01:49:19;;;;;;;8.65;2.20;;;7.50;99.90;;;;;;5013580;28;20021;-79
2022/11/03 01:51:51;;;;;;;7.03;2.25;;;7.50;99.90;;;;;;5006335;28;20092;-78
2022/11/03 01:54:21;;;;;;;7.03;2.13;;;7.50;99.90;;;;;;5009426;28;20026;-78
2022/11/03 01:56:47;;;;;;;7.40;1.95;;;7.60;99.90;;;;;;5005715;28;20033;-78
2022/11/03 01:59:19;;;;;;;10.73;2.63;;;7.60;99.90;;;;;;5011845;28;20040;-79
2022/11/03 02:01:46;;;;;;;6.47;1.80;;;7.60;99.90;;;;;;5012697;28;20029;-78
2022/11/03 02:04:21;;;;;;;7.35;2.15;;;7.60;99.90;;;;;;5015847;28;20033;-79
2022/11/03 02:06:56;;;;;;;3.80;1.90;;;7.50;99.90;;;;;;5018474;28;20029;-78
2022/11/03 02:09:23;;;;;;;6.57;2.30;;;7.50;99.90;;;;;;5014056;28;20489;-78
2022/11/03 02:12:07;;;;;;;7.82;2.22;;;7.50;99.90;;;;;;5016622;28;20052;-78
2022/11/03 02:14:49;;;;;;;6.18;2.83;;;7.40;99.90;;;;;;5025290;28;20030;-78
2022/11/03 02:17:16;;;;;;;6.60;2.70;;;7.30;99.90;;;;;;5026277;28;20036;-78
2022/11/03 02:19:47;;;;;;;9.50;2.67;;;7.30;99.90;;;;;;5019779;28;20025;-78
2022/11/03 02:22:47;;;;;;;6.00;2.17;;;7.30;99.90;;;;;;5025299;28;20207;-78
2022/11/03 02:25:36;;;;;;;6.10;2.55;;;7.30;99.90;;;;;;5016780;28;20041;-78
2022/11/03 02:28:04;;;;;;;9.70;2.55;;;7.30;99.90;;;;;;5014156;28;20099;-79
2022/11/03 02:30:40;;;;;;;5.20;2.00;;;7.30;99.90;;;;;;5016024;28;20046;-78
2022/11/03 02:33:19;;;;;;;5.13;1.85;;;7.30;99.90;;;;;;5020164;28;20033;-78
2022/11/03 02:36:01;;;;;;;8.45;2.35;;;7.30;99.90;;;;;;5034624;28;20021;-78
2022/11/03 02:38:30;;;;;;;8.20;2.73;;;7.30;99.90;;;;;;5026207;28;20180;-78
2022/11/03 02:41:00;;;;;;;10.20;2.95;;;7.30;99.90;;;;;;5018334;28;20044;-78
2022/11/03 02:43:27;;;;;;;10.35;3.00;;;7.30;99.90;;;;;;5021797;28;20113;-79
2022/11/03 02:45:54;;;;;;;10.80;3.47;;;7.30;99.90;;;;;;5020094;28;20041;-79
2022/11/03 02:48:20;;;;;;;9.88;2.50;;;7.40;99.90;;;;;;5017371;28;20061;-79
2022/11/03 02:50:48;;;;;;;9.85;2.63;;;7.40;99.90;;;;;;5014912;28;20536;-79
2022/11/03 02:53:15;;;;;;;8.48;2.97;;;7.40;99.90;;;;;;5008051;28;20040;-78
2022/11/03 02:55:50;;;;;;;9.65;2.40;;;7.40;99.90;;;;;;5017776;28;20401;-79
2022/11/03 02:58:36;;;;;;;8.25;2.92;;;7.40;99.90;;;;;;5012976;28;20053;-78
2022/11/03 03:01:13;;;;;;;8.60;2.53;;;7.40;99.90;;;;;;5015109;28;20039;-78
2022/11/03 03:03:43;;;;;;;7.65;3.00;;;7.50;99.90;;;;;;5017814;28;20037;-79
2022/11/03 03:06:14;;;;;;;7.90;2.70;;;7.50;99.90;;;;;;5018296;28;20249;-78
2022/11/03 03:08:45;;;;;;;11.00;3.13;;;7.50;99.90;;;;;;5011476;28;20076;-78
2022/11/03 03:11:12;;;;;;;6.47;2.25;;;7.50;99.90;;;;;;5020786;28;20043;-79
2022/11/03 03:13:39;;;;;;;6.38;2.20;;;7.60;99.90;;;;;;5024273;28;20026;-78
2022/11/03 03:16:15;;;;;;;7.43;2.25;;;7.60;99.90;;;;;;5031799;28;20086;-78
2022/11/03 03:18:47;;;;;;;8.25;2.80;;;7.60;99.90;;;;;;5015995;28;20893;-79
2022/11/03 03:21:22;;;;;;;8.65;2.70;;;7.60;99.90;;;;;;5018839;28;20026;-78
2022/11/03 03:23:56;;;;;;;7.10;2.65;;;7.60;99.90;;;;;;5028225;28;20040;-78
2022/11/03 03:26:44;;;;;;;9.63;2.50;;;7.60;99.90;;;;;;5018398;28;20458;-79
2022/11/03 03:29:17;;;;;;;8.98;2.70;;;7.70;99.90;;;;;;5027288;28;20069;-78
2022/11/03 03:31:47;;;;;;;8.88;2.90;;;7.70;99.90;;;;;;5025943;28;20119;-79
2022/11/03 03:34:16;;;;;;;7.40;2.60;;;7.70;99.90;;;;;;5041096;28;20033;-79
2022/11/03 03:36:45;;;;;;;6.70;2.50;;;7.70;99.90;;;;;;5023297;28;20524;-79
2022/11/03 03:39:13;;;;;;;5.57;2.33;;;7.70;99.90;;;;;;5026717;28;20029;-79
2022/11/03 03:41:40;;;;;;;5.53;2.38;;;7.70;99.90;;;;;;5031261;28;20028;-78
2022/11/03 03:44:08;;;;;;;5.68;2.00;;;7.70;99.90;;;;;;5034259;28;20060;-79
2022/11/03 03:47:02;;;;;;;10.38;2.90;;;7.70;99.90;;;;;;5025228;28;20091;-79
2022/11/03 03:49:28;;;;;;;;;;;7.70;99.90;;;;;;5017054;28;20091;-79
2022/11/03 03:51:53;;;;;;;5.80;2.00;;;7.70;99.90;;;;;;5017675;28;19956;-79
2022/11/03 03:54:19;;;;;;;7.68;2.80;;;7.70;99.90;;;;;;5010254;28;20101;-79
2022/11/03 03:56:47;;;;;;;9.13;2.35;;;7.70;99.90;;;;;;5026295;28;20140;-79
2022/11/03 03:59:13;;;;;;;8.45;2.38;;;7.70;99.90;;;;;;5026740;28;20072;-79
2022/11/03 04:01:38;;;;;;;5.53;2.10;;;7.80;99.90;;;;;;5025684;28;20036;-78
2022/11/03 04:04:04;;;;;;;6.75;2.25;;;7.70;99.90;;;;;;5023715;28;20026;-78
2022/11/03 04:06:30;;;;;;;6.55;2.00;;;7.80;99.90;;;;;;5018662;28;20019;-79
2022/11/03 04:08:55;;;;;;;5.63;1.80;;;7.70;99.90;;;;;;5013619;28;20525;-78
2022/11/03 04:22:17;;;;;;;4.05;1.90;;;7.60;99.90;;;;;;5023632;28;20032;-78
2022/11/03 04:24:48;;;;;;;6.10;2.15;;;7.60;99.90;;;;;;5022846;28;20017;-78
2022/11/03 04:27:25;;;;;;;6.55;2.10;;;7.60;99.90;;;;;;5016134;28;20118;-79
2022/11/03 04:29:54;;;;;;;4.28;1.98;;;7.60;99.90;;;;;;5017120;28;20038;-78
2022/11/03 04:32:20;;;;;;;4.53;1.95;;;7.60;99.90;;;;;;5024154;28;20035;-78
2022/11/03 04:34:47;;;;;;;6.78;2.10;;;7.60;99.90;;;;;;5024248;28;20021;-78
2022/11/03 04:37:13;;;;;;;6.13;2.30;;;7.60;99.90;;;;;;5032199;28;20025;-79
2022/11/03 04:39:39;;;;;;;5.07;2.17;;;7.50;99.90;;;;;;5018866;28;20065;-78
2022/11/03 04:42:17;;;;;;;3.97;2.15;;;7.50;99.90;;;;;;5011381;28;20040;-78
2022/11/03 04:44:44;;;;;;;8.13;2.33;;;7.50;99.90;;;;;;5012562;28;20116;-78
2022/11/03 04:47:11;;;;;;;5.18;1.85;;;7.50;99.90;;;;;;5011798;28;20037;-78
2022/11/03 04:49:37;;;;;;;3.80;1.88;;;7.40;99.90;;;;;;5014892;28;20111;-78
2022/11/03 04:52:12;;;;;;;6.55;2.13;;;7.40;99.90;;;;;;5014439;28;20029;-78
2022/11/03 04:54:37;;;;;;;4.15;2.00;;;7.40;99.90;;;;;;5013493;28;20032;-78
2022/11/03 04:57:13;;;;;;;8.77;2.42;;;7.40;99.90;;;;;;5017941;28;20033;-78
2022/11/03 04:59:43;;;;;;;7.15;2.45;;;7.40;99.90;;;;;;5011435;28;20140;-79
2022/11/03 05:02:16;;;;;;;7.50;2.60;;;7.40;99.90;;;;;;5007527;28;20049;-78
2022/11/03 05:04:42;;;;;;;6.68;2.28;;;7.40;99.90;;;;;;5010524;28;20543;-78
2022/11/03 05:07:30;;;;;;;8.77;2.22;;;7.50;99.90;;;;;;5009361;28;20037;-79
2022/11/03 05:09:56;;;;;;;5.88;2.13;;;7.40;99.90;;;;;;5024096;28;20116;-78
2022/11/03 05:12:22;;;;;;;6.70;2.42;;;7.40;99.90;;;;;;5018426;28;20115;-78
2022/11/03 05:14:48;;;;;;;5.70;2.10;;;7.40;99.90;;;;;;5011747;28;20025;-78
2022/11/03 05:17:26;;;;;;;9.60;2.58;;;7.40;99.90;;;;;;5015673;28;20075;-79
2022/11/03 05:20:05;;;;;;;8.70;3.20;;;7.40;99.90;;;;;;5013723;28;20022;-78
2022/11/03 05:22:34;;;;;;;13.65;3.22;;;7.50;99.90;;;;;;5014709;28;20033;-79
2022/11/03 05:25:23;;;;;;;9.20;2.92;;;7.50;99.90;;;;;;5022404;28;22729;-78
2022/11/03 05:27:49;;;;;;;6.10;3.05;;;7.50;99.90;;;;;;5009420;28;20036;-78
2022/11/03 05:30:14;;;;;;;10.43;3.03;;;7.50;99.90;;;;;;5013332;28;20533;-78
2022/11/03 05:32:41;;;;;;;7.97;3.08;;;7.50;99.90;;;;;;5016194;28;20047;-78
2022/11/03 05:35:19;;;;;;;8.80;3.53;;;7.40;99.90;;;;;;5018385;28;20024;-78
2022/11/03 05:37:45;;;;;;;7.03;3.05;;;7.40;99.90;;;;;;5021374;28;20037;-78
2022/11/03 05:40:19;;;;;;;7.38;2.95;;;7.40;99.90;;;;;;5019157;28;20022;-79
2022/11/03 05:42:47;;;;;;;5.82;3.00;;;7.40;99.90;;;;;;5017862;28;20033;-79
2022/11/03 05:45:34;;;;;;;7.40;3.63;;;7.40;99.90;;;;;;5012116;28;20052;-78
2022/11/03 05:48:02;;;;;;;9.32;3.92;;;7.40;99.90;;;;;;5015839;28;20035;-78
2022/11/03 05:50:32;;;;;;;10.85;4.28;;;7.40;99.90;;;;;;5015355;28;20536;-79
2022/11/03 05:53:25;;;;;;;10.52;4.38;;;7.40;99.90;;;;;;5011905;28;20033;-78
2022/11/03 05:55:52;;;;;;;8.27;3.97;;;7.50;99.90;;;;;;5011457;28;20033;-80
2022/11/03 05:58:33;;;;;;;9.32;4.78;;;7.40;99.90;;;;;;5014681;28;20045;-76
2022/11/03 06:01:01;;;;;;;11.60;4.20;;;7.50;99.90;;;;;;5017972;28;20082;-78
2022/11/03 06:03:28;;;;;;;11.10;4.88;;;7.40;99.90;;;;;;5018068;28;20040;-78
2022/11/03 06:05:55;;;;;;;13.32;4.72;;;7.50;99.90;;;;;;5021708;28;20029;-78
2022/11/03 06:08:34;;;;;;;10.57;4.68;;;7.40;99.90;;;;;;5029327;28;20561;-78
2022/11/03 06:11:01;;;;;;;11.93;5.28;;;7.40;99.90;;;;;;5022468;28;20045;-78
2022/11/03 06:13:33;;;;;;;10.85;5.75;;;7.50;99.90;;;;;;5014314;28;20026;-78
2022/11/03 06:16:24;;;;;;;13.25;7.20;;;7.40;99.90;;;;;;5020112;28;20029;-78
2022/11/03 06:18:50;;;;;;;11.02;6.13;;;7.40;99.90;;;;;;5006440;28;20029;-80
2022/11/03 06:21:21;;;;;;;10.23;5.07;;;7.40;99.90;;;;;;5017151;28;20025;-78
2022/11/03 06:23:47;;;;;;;9.98;4.22;;;7.40;99.90;;;;;;5003374;28;20159;-80
2022/11/03 06:26:19;;;;;;;9.23;3.67;;;7.30;99.90;;;;;;5007356;28;20150;-79
2022/11/03 06:28:48;;;;;;;9.45;3.38;;;7.30;99.90;;;;;;5018790;28;20026;-79
2022/11/03 06:31:29;;;;;;;9.07;3.17;;;7.40;99.90;;;;;;5019644;28;20057;-79
2022/11/03 06:33:57;;;;;;;5.95;2.70;;;7.30;99.90;;;;;;5009148;28;20034;-79
2022/11/03 06:36:27;;;;;;;5.65;2.67;;;7.30;99.90;;;;;;5025780;28;20025;-79
2022/11/03 06:39:02;;;;;;;5.72;2.80;;;7.40;99.90;;;;;;5020055;28;20057;-80
2022/11/03 06:41:34;;;;;;;6.03;2.30;;;7.40;99.90;;;;;;5028014;28;20598;-79
2022/11/03 06:44:15;;;;;;;4.53;2.60;;;7.40;99.90;;;;;;5025109;28;20059;-80
2022/11/03 06:46:40;;;;;;;5.55;2.22;;;7.40;99.90;;;;;;5027801;28;20037;-80
2022/11/03 06:49:24;;;;;;;4.95;2.45;;;7.40;99.90;;;;;;5022438;28;20038;-80
2022/11/03 06:51:50;;;;;;;8.13;2.95;;;7.40;99.90;;;;;;5021347;28;20143;-80
2022/11/03 06:54:16;;;;;;;5.95;2.47;;;7.40;99.90;;;;;;5039045;28;20100;-80
2022/11/03 06:56:41;;;;;;;9.60;3.10;;;7.50;99.90;;;;;;5021415;28;20025;-80
2022/11/03 06:59:13;;;;;;;6.35;3.00;;;7.40;99.90;;;;;;5024300;28;20505;-80
2022/11/03 07:01:39;;;;;;;10.95;3.00;;;7.50;99.90;;;;;;5019801;28;20045;-80
2022/11/03 07:04:17;;;;;;;11.38;3.40;;;7.50;99.90;;;;;;5004676;28;20426;-80
2022/11/03 07:06:44;;;;;;;6.30;3.50;;;7.60;99.90;;;;;;5022726;28;20440;-80
2022/11/03 07:09:20;;;;;;;9.80;3.95;;;7.60;99.90;;;;;;5026438;28;20037;-80
2022/11/03 07:11:50;;;;;;;9.70;3.63;;;7.60;99.90;;;;;;5010517;28;20116;-80
2022/11/03 07:14:26;;;;;;;7.82;3.38;;;7.60;99.90;;;;;;5011004;28;20049;-80
2022/11/03 07:17:01;;;;;;;6.93;3.30;;;7.60;99.90;;;;;;5019805;28;20554;-81
2022/11/03 07:19:31;;;;;;;12.45;3.75;;;7.60;99.90;;;;;;5021052;28;20037;-80
2022/11/03 07:22:14;;;;;;;12.82;3.80;;;7.60;99.90;;;;;;5030338;28;20037;-80
2022/11/03 07:24:43;;;;;;;13.15;3.58;;;7.60;99.90;;;;;;5017607;28;20635;-80
2022/11/03 07:27:25;;;;;;;8.32;4.13;;;7.70;99.90;;;;;;5023752;28;20386;-80
2022/11/03 07:29:57;;;;;;;10.65;3.60;;;7.70;99.90;;;;;;5015397;28;20057;-80
2022/11/03 07:32:30;;;;;;;8.20;4.28;;;7.80;99.90;;;;;;5015109;28;20060;-80
2022/11/03 07:35:17;;;;;;;6.82;3.05;;;7.80;99.90;;;;;;5013742;28;20405;-80
2022/11/03 07:37:46;;;;;;;12.43;4.15;;;7.80;99.90;;;;;;5029247;28;20116;-80
2022/11/03 07:40:22;;;;;;;6.40;3.42;;;7.90;99.90;;;;;;5026679;28;20596;-80
2022/11/03 07:42:48;;;;;;;6.55;3.42;;;7.90;99.90;;;;;;5018063;28;20034;-80
2022/11/03 07:45:39;;;;;;;8.45;3.38;;;8.00;99.90;;;;;;5015197;28;20049;-80
2022/11/03 07:48:18;;;;;;;7.82;3.50;;;8.00;99.90;;;;;;5013952;28;20029;-80
2022/11/03 07:50:44;;;;;;;6.68;3.50;;;8.00;99.90;;;;;;5019150;28;20616;-80
2022/11/03 07:53:21;;;;;;;9.52;3.15;;;8.00;99.90;;;;;;5018278;28;20434;-80
2022/11/03 07:55:47;;;;;;;8.60;3.13;;;8.10;99.90;;;;;;5025510;28;20032;-80
2022/11/03 07:58:21;;;;;;;9.00;3.15;;;8.10;99.90;;;;;;5027034;28;20091;-80
2022/11/03 08:00:47;;;;;;;8.82;3.58;;;8.10;99.90;;;;;;5020350;28;20017;-80
2022/11/03 08:03:27;;;;;;;11.35;4.05;;;8.10;99.90;;;;;;5029395;28;20501;-80
2022/11/03 08:05:53;;;;;;;10.48;3.30;;;8.20;99.90;;;;;;5020030;28;20486;-80
2022/11/03 08:08:18;;;;;;;8.07;3.42;;;8.20;99.90;;;;;;5036329;28;20061;-80
2022/11/03 08:10:44;;;;;;;8.88;3.80;;;8.20;99.90;;;;;;5030768;28;20030;-80
2022/11/03 08:13:09;;;;;;;8.70;4.32;;;8.30;99.90;;;;;;5013058;28;20746;-80
2022/11/03 08:15:35;;;;;;;13.23;4.40;;;8.30;99.90;;;;;;5025155;28;20072;-80
2022/11/03 08:18:01;;;;;;;8.32;4.13;;;8.40;99.90;;;;;;5035847;28;20127;-80
2022/11/03 08:20:26;;;;;;;10.13;4.15;;;8.40;99.90;;;;;;5029474;28;20029;-80
2022/11/03 08:22:52;;;;;;;10.65;4.82;;;8.50;99.90;;;;;;5027929;28;20029;-80
2022/11/03 08:25:17;;;;;;;12.20;4.70;;;8.60;99.90;;;;;;5021568;28;20021;-80
2022/11/03 08:27:43;;;;;;;11.93;5.32;;;8.80;99.90;;;;;;5022893;28;20037;-80
2022/11/03 08:30:09;;;;;;;14.80;5.63;;;8.90;99.90;;;;;;5026415;28;20041;-80
2022/11/03 08:32:35;;;;;;;12.43;5.28;;;9.10;99.90;;;;;;5011255;28;20039;-80
2022/11/03 08:35:00;;;;;;;13.23;5.78;;;9.30;99.90;;;;;;5021297;28;20026;-80
2022/11/03 08:37:26;;;;;;;17.70;5.38;;;9.40;99.90;;;;;;5015484;28;20106;-80
2022/11/03 08:39:51;;;;;;;19.30;4.90;;;9.60;99.90;;;;;;5015108;28;20355;-81
2022/11/03 08:42:17;;;;;;;13.88;4.43;;;9.70;99.90;;;;;;5011332;28;20033;-76
2022/11/03 08:44:43;;;;;;;16.17;8.13;;;9.90;99.90;;;;;;5009897;28;20045;-77
2022/11/03 08:47:08;;;;;;;12.30;5.57;;;10.00;99.90;;;;;;5018047;28;20537;-76
2022/11/03 08:49:34;;;;;;;14.07;4.05;;;10.20;99.90;;;;;;5013236;28;20034;-75
2022/11/03 08:51:59;;;;;;;10.68;3.83;;;10.20;99.90;;;;;;5010488;28;20025;-76
2022/11/03 08:54:25;;;;;;;13.35;4.45;;;10.40;99.90;;;;;;5024730;28;20060;-77
2022/11/03 08:56:51;;;;;;;16.80;4.47;;;10.40;99.90;;;;;;5016788;28;20109;-77
2022/11/03 08:59:17;;;;;;;15.15;5.82;;;10.50;99.90;;;;;;5007467;28;20195;-77
2022/11/03 09:01:43;;;;;;;11.55;5.00;;;10.40;99.90;;;;;;5010963;28;20041;-77
2022/11/03 09:04:09;;;;;;;14.75;5.13;;;10.50;99.90;;;;;;5013023;28;20464;-78
2022/11/03 09:06:34;;;;;;;10.07;4.07;;;10.60;99.90;;;;;;5020111;28;20032;-79
2022/11/03 09:09:00;;;;;;;13.63;5.40;;;10.60;99.90;;;;;;5009608;28;20120;-78
2022/11/03 09:11:26;;;;;;;17.17;8.13;;;10.60;99.90;;;;;;5014677;28;20525;-78
2022/11/03 09:13:51;;;;;;;12.27;5.20;;;10.70;99.90;;;;;;5019849;28;20018;-76
2022/11/03 09:16:17;;;;;;;13.25;4.43;;;10.70;99.90;;;;;;5017402;28;20033;-78
2022/11/03 09:18:44;;;;;;;10.05;4.43;;;10.70;99.90;;;;;;5026796;28;20030;-77
2022/11/03 09:21:09;;;;;;;8.70;4.18;;;10.80;99.90;;;;;;5010720;28;20041;-76
2022/11/03 09:23:35;;;;;;;13.32;5.00;;;10.80;99.90;;;;;;5015932;28;20033;-76
2022/11/03 09:26:01;;;;;;;13.95;7.88;;;10.80;99.90;;;;;;5014620;28;20062;-76
2022/11/03 09:28:26;;;;;;;14.55;7.78;;;10.80;99.90;;;;;;5012504;28;20135;-75
2022/11/03 09:30:52;;;;;;;19.50;4.60;;;10.90;99.90;;;;;;5026083;28;20073;-75
2022/11/03 09:33:19;;;;;;;15.70;5.03;;;10.90;99.90;;;;;;5018807;28;20071;-76
2022/11/03 09:35:45;;;;;;;13.25;4.30;;;11.00;99.90;;;;;;5028037;28;20294;-76
2022/11/03 09:38:10;;;;;;;15.20;4.97;;;11.10;99.90;;;;;;5017585;28;20105;-76
2022/11/03 09:40:36;;;;;;;12.35;5.25;;;11.20;99.90;;;;;;5012787;28;20474;-76
2022/11/03 09:43:02;;;;;;;10.43;4.88;;;11.30;99.90;;;;;;5014652;28;20619;-76
2022/11/03 09:45:27;;;;;;;11.82;4.88;;;11.50;99.90;;;;;;5022933;28;20030;-75
2022/11/03 09:47:53;;;;;;;10.90;4.03;;;11.60;99.90;;;;;;5021180;28;20088;-77
2022/11/03 09:50:19;;;;;;;13.95;5.05;;;11.70;99.90;;;;;;5019297;28;20043;-77
2022/11/03 09:52:46;;;;;;;15.35;4.53;;;11.70;99.90;;;;;;5008518;28;20480;-76
2022/11/03 09:55:19;;;;;;;11.40;4.40;;;11.70;99.90;;;;;;5016913;28;20033;-75
2022/11/03 09:57:45;;;;;;;13.20;4.03;;;11.60;99.90;;;;;;5018329;28;20033;-78
2022/11/03 10:00:22;;;;;;;9.77;3.80;;;11.60;99.90;;;;;;5027618;28;20025;-75
2022/11/03 10:02:48;;;;;;;10.57;3.88;;;11.60;99.90;;;;;;5020016;28;20108;-75
2022/11/03 10:05:19;;;;;;;12.10;4.80;;;11.70;99.90;;;;;;5017556;28;20029;-76
2022/11/03 10:07:45;;;;;;;18.65;7.05;;;11.70;99.90;;;;;;5015899;28;20042;-75
2022/11/03 10:10:19;;;;;;;13.70;4.80;;;11.80;99.90;;;;;;5014557;28;20033;-75
2022/11/03 10:12:46;;;;;;;10.02;4.45;;;11.80;99.90;;;;;;5024479;28;20032;-78
2022/11/03 10:15:17;;;;;;;10.80;4.25;;;11.90;99.90;;;;;;5017105;28;20401;-77
2022/11/03 10:17:44;;;;;;;11.02;4.10;;;12.10;99.90;;;;;;5015095;28;20021;-76
2022/11/03 10:20:15;;;;;;;8.82;3.97;;;12.20;99.90;;;;;;5019186;28;20446;-77
2022/11/03 10:22:43;;;;;;;12.32;5.00;;;12.30;99.90;;;;;;5007471;28;20034;-74
2022/11/03 10:25:28;;;;;;;8.98;3.80;;;12.50;99.90;;;;;;5015591;28;20040;-76
2022/11/03 10:28:10;;;;;;;8.23;3.42;;;12.70;99.90;;;;;;5016397;28;20508;-76
2022/11/03 10:30:51;;;;;;;10.45;3.20;;;12.90;99.90;;;;;;5021507;28;20084;-77
2022/11/03 10:33:33;;;;;;;9.60;3.30;;;13.00;99.90;;;;;;5013562;28;20028;-76
2022/11/03 10:36:01;;;;;;;11.52;3.28;;;13.10;99.90;;;;;;5021829;28;20167;-76
2022/11/03 10:38:30;;;;;;;8.80;3.30;;;13.10;99.90;;;;;;5019852;28;20021;-76
2022/11/03 10:41:08;;;;;;;8.88;3.15;;;13.10;99.90;;;;;;5022939;28;20124;-76
2022/11/03 10:43:33;;;;;;;11.80;3.50;;;13.20;99.90;;;;;;5015509;28;20481;-75
2022/11/03 10:46:10;;;;;;;14.82;3.58;;;13.20;99.90;;;;;;5018479;28;20159;-77
2022/11/03 10:48:36;;;;;;;11.50;3.15;;;13.20;99.90;;;;;;5021465;28;20029;-76
2022/11/03 10:51:02;;;;;;;8.05;3.05;;;13.20;99.90;;;;;;5017399;28;20037;-76
2022/11/03 10:53:27;;;;;;;10.70;3.08;;;13.20;99.90;;;;;;5017893;28;20049;-76
2022/11/03 10:55:54;;;;;;;12.80;3.22;;;13.10;99.90;;;;;;5017800;28;20026;-76
2022/11/03 10:58:20;;;;;;;9.60;5.15;;;13.10;99.90;;;;;;5023085;28;20044;-75
2022/11/03 11:00:46;;;;;;;7.85;3.35;;;13.00;99.90;;;;;;5028048;28;20057;-76
2022/11/03 11:03:12;;;;;;;11.45;3.90;;;13.00;99.90;;;;;;5021792;28;20425;-77
2022/11/03 11:05:44;;;;;;;9.52;4.03;;;13.00;99.90;;;;;;5020361;28;20029;-77
2022/11/03 11:08:11;;;;;;;8.43;3.10;;;13.10;99.90;;;;;;5031833;28;20388;-77
2022/11/03 11:10:43;;;;;;;7.35;3.40;;;13.10;99.90;;;;;;5009198;28;20632;-77
2022/11/03 11:13:17;;;;;;;10.45;3.55;;;13.20;99.90;;;;;;5024867;28;20043;-77
2022/11/03 11:15:45;;;;;;;12.70;3.38;;;13.20;99.90;;;;;;5024435;28;20087;-77
2022/11/03 11:18:31;;;;;;;14.93;8.43;;;13.20;99.90;;;;;;5014362;28;20112;-76
2022/11/03 11:20:59;;;;;;;8.55;3.92;;;13.20;99.90;;;;;;5011295;28;20108;-76
2022/11/03 11:23:28;;;;;;;11.32;4.85;;;13.20;99.90;;;;;;5017142;28;20895;-76
2022/11/03 11:26:09;;;;;;;13.85;7.55;;;13.20;99.90;;;;;;5019500;28;20048;-77
2022/11/03 11:28:40;;;;;;;12.05;5.90;;;13.30;99.90;;;;;;5039309;28;20022;-77
2022/11/03 11:31:21;;;;;;;9.30;4.32;;;13.40;99.90;;;;;;5023071;28;20045;-77
2022/11/03 11:33:47;;;;;;;12.50;5.15;;;13.40;99.90;;;;;;5023189;28;20501;-77
2022/11/03 11:36:24;;;;;;;6.63;3.65;;;13.50;99.90;;;;;;5014945;28;20060;-77
2022/11/03 11:38:51;;;;;;;19.30;10.65;;;13.50;99.90;;;;;;5021169;28;20108;-76
2022/11/03 11:41:17;;;;;;;14.43;5.38;;;13.60;99.90;;;;;;5026409;28;20058;-77
2022/11/03 11:43:42;;;;;;;8.73;3.20;;;13.60;99.90;;;;;;5009275;28;20125;-76
2022/11/03 11:46:23;;;;;;;9.25;2.50;;;13.60;99.90;;;;;;5028930;28;20028;-77
2022/11/03 11:49:01;;;;;;;9.13;2.55;;;13.60;99.90;;;;;;5019519;28;20021;-77
2022/11/03 11:51:27;;;;;;;7.68;2.97;;;13.70;99.90;;;;;;5023375;28;20037;-76
2022/11/03 11:53:53;;;;;;;8.52;2.40;;;13.70;99.90;;;;;;5011451;28;20022;-76
2022/11/03 11:56:19;;;;;;;10.23;3.08;;;13.70;99.90;;;;;;5019242;28;20092;-77
2022/11/03 11:58:55;;;;;;;5.82;2.63;;;13.70;99.90;;;;;;5020085;28;20074;-77
2022/11/03 12:01:34;;;;;;;7.25;2.58;;;13.80;99.90;;;;;;5016024;28;20099;-76
2022/11/03 12:04:21;;;;;;;11.30;3.38;;;13.80;99.90;;;;;;5020045;28;20029;-77
2022/11/03 12:06:47;;;;;;;9.93;3.13;;;13.80;99.90;;;;;;5022314;28;20045;-77
2022/11/03 12:09:20;;;;;;;14.15;3.00;;;13.90;99.90;;;;;;5018553;28;20087;-77
2022/11/03 12:11:51;;;;;;;8.93;3.90;;;13.90;99.90;;;;;;5022461;28;20025;-76
2022/11/03 12:14:36;;;;;;;9.07;3.63;;;14.00;99.90;;;;;;5025246;28;20037;-76
2022/11/03 12:17:17;;;;;;;6.40;2.72;;;14.10;99.90;;;;;;5014334;28;21465;-76
2022/11/03 12:19:48;;;;;;;7.57;2.65;;;14.30;99.90;;;;;;5020632;28;20064;-76
2022/11/03 12:22:23;;;;;;;7.70;2.88;;;14.40;99.90;;;;;;5013420;28;20025;-76
2022/11/03 12:24:54;;;;;;;6.97;2.00;;;14.50;99.90;;;;;;5031491;28;20549;-76
2022/11/03 12:27:25;;;;;;;8.50;2.30;;;14.50;99.90;;;;;;5021218;28;20041;-76
2022/11/03 12:29:52;;;;;;;6.20;2.03;;;14.50;99.90;;;;;;5017754;28;20053;-76
2022/11/03 12:32:18;;;;;;;7.07;2.22;;;14.50;99.90;;;;;;5010672;28;20026;-76
2022/11/03 12:34:44;;;;;;;8.40;2.28;;;14.50;99.90;;;;;;5024578;28;20031;-76
2022/11/03 12:37:10;;;;;;;5.32;1.90;;;14.50;99.90;;;;;;5026684;28;20520;-76
2022/11/03 12:39:35;;;;;;;7.43;2.65;;;14.40;99.90;;;;;;5025112;28;20029;-76
2022/11/03 12:42:01;;;;;;;7.05;2.63;;;14.40;99.90;;;;;;5009200;28;21001;-76
2022/11/03 12:44:27;;;;;;;5.60;2.05;;;14.40;99.90;;;;;;5020581;28;20029;-74
2022/11/03 12:46:52;;;;;;;8.00;2.53;;;14.30;99.90;;;;;;5013669;28;20045;-80
2022/11/03 12:49:18;;;;;;;8.40;2.17;;;14.30;99.90;;;;;;5015209;28;20037;-79
2022/11/03 12:51:44;;;;;;;7.93;2.58;;;14.30;99.90;;;;;;5013124;28;20508;-79
2022/11/03 12:54:09;;;;;;;6.78;2.08;;;14.30;99.90;;;;;;5018250;28;20029;-80
2022/11/03 12:56:35;;;;;;;10.20;2.10;;;14.30;99.90;;;;;;5020421;28;20108;-83
2022/11/03 12:59:01;;;;;;;8.25;2.88;;;14.30;99.90;;;;;;5013953;28;20113;-81
2022/11/03 13:01:26;;;;;;;11.00;2.90;;;14.30;99.90;;;;;;5017038;28;20044;-81
2022/11/03 13:03:52;;;;;;;9.88;3.08;;;14.30;99.90;;;;;;5015981;28;20037;-80
2022/11/03 13:06:18;;;;;;;14.80;2.60;;;14.20;99.90;;;;;;5022207;28;20036;-78
2022/11/03 13:08:43;;;;;;;8.90;2.35;;;14.20;99.90;;;;;;5012763;28;20037;-78
2022/11/03 13:13:54;;;;;;;8.77;2.20;;;14.10;99.90;;;;;;5012428;28;20547;-79
2022/11/03 13:16:20;;;;;;;7.40;2.30;;;14.10;99.90;;;;;;5005782;28;20033;-78
2022/11/03 13:18:46;;;;;;;4.70;2.10;;;14.00;99.90;;;;;;5018692;28;20025;-76
2022/11/03 13:21:12;;;;;;;6.88;2.47;;;14.00;99.90;;;;;;5017141;28;20034;-77
2022/11/03 13:23:41;;;;;;;5.72;2.33;;;14.00;99.90;;;;;;5009292;28;20048;-76